Latest Weather Observations for Walpole North

IDW60801

Issued at 11:02 pm WST Sunday 1 March 2015 (issued every 30 minutes, with the page automatically refreshed every 10 minutes)

About weather observations | Map of weather stations | Latest weather observations for WA | Other Formats
Station Details ID: 009998 Name: NORTH WALPOLE Lat: -34.95 Lon: 116.72 Height: 73.0 m
Data from the previous 72 hours. | See also: Recent months at Walpole North
Date/Time
WST
Temp
°C
App
Temp
°C
Dew
Point
Rel
Hum
%
Delta-T
°C
Wind Press
QNH
hPa
Press
MSL
hPa
Rain
since 9 am
mm
Dir
 
Spd
km/h
Gust
km/h
Spd
kts
Gust
kts
01/11:00pm 16.5 13.5 9.2 62 3.8 SE 15 20 8 11 1017.2 1017.0 0.0
01/10:30pm 16.8 13.4 9.2 61 3.9 SE 17 24 9 13 1017.3 1017.1 0.0
01/10:00pm 16.9 13.1 9.1 60 4.0 SE 19 28 10 15 1017.4 1017.2 0.0
01/09:30pm 16.8 13.0 9.0 60 4.0 SE 19 28 10 15 1017.1 1016.9 0.0
01/09:00pm 16.8 13.2 10.0 64 3.6 SE 19 32 10 17 1016.8 1016.6 0.0
01/08:30pm 17.2 13.6 10.6 65 3.5 SE 20 30 11 16 1016.7 1016.5 0.0
01/08:00pm 17.1 14.1 10.7 66 3.4 SE 17 28 9 15 1016.4 1016.2 0.0
01/07:30pm 17.0 13.4 10.6 66 3.4 SE 20 30 11 16 1015.8 1015.6 0.0
01/07:00pm 17.0 13.7 10.8 67 3.3 SE 19 24 10 13 1015.5 1015.3 0.0
01/06:30pm 17.3 14.0 10.9 66 3.5 SE 19 26 10 14 1015.5 1015.3 0.0
01/06:00pm 17.4 13.5 10.8 65 3.6 SE 22 32 12 17 1015.4 1015.2 0.0
01/05:30pm 17.7 13.7 10.6 63 3.8 SE 22 33 12 18 1015.1 1014.9 0.0
01/05:00pm 17.9 13.5 10.5 62 4.0 SE 24 32 13 17 1014.9 1014.7 0.0
01/04:30pm 18.2 14.3 10.8 62 4.0 SSE 22 33 12 18 1014.5 1014.3 0.0
01/04:00pm 18.1 14.3 11.0 63 3.9 SE 22 32 12 17 1014.5 1014.3 0.0
01/03:30pm 18.6 15.2 11.2 62 4.0 SE 20 35 11 19 1014.3 1014.1 0.0
01/03:00pm 18.8 14.7 11.6 63 4.0 SE 24 37 13 20 1014.1 1013.9 0.0
01/02:30pm 18.8 15.7 12.3 66 3.6 SE 20 35 11 19 1014.5 1014.3 0.0
01/02:00pm 18.4 15.2 11.9 66 3.6 SE 20 32 11 17 1014.8 1014.6 0.0
01/01:30pm 18.5 15.3 12.0 66 3.6 SE 20 33 11 18 1014.6 1014.4 0.0
01/01:00pm 18.7 14.4 12.0 65 3.7 SE 26 37 14 20 1014.6 1014.4 0.0
01/12:30pm 18.8 15.0 12.3 66 3.6 SE 24 35 13 19 1014.3 1014.1 0.0
01/12:00pm 19.1 15.0 12.6 66 3.7 SE 26 35 14 19 1014.6 1014.4 0.0
01/11:30am 19.7 16.5 13.2 66 3.7 SE 22 32 12 17 1014.9 1014.7 0.0
01/11:00am 20.0 15.9 12.7 63 4.1 SE 26 35 14 19 1015.2 1015.0 0.0
01/10:30am 20.3 16.8 12.3 60 4.5 SE 22 30 12 16 1015.3 1015.1 0.0
01/10:00am 19.9 17.0 12.2 61 4.3 ESE 19 24 10 13 1015.4 1015.2 0.0
01/09:30am 20.7 18.5 12.1 58 4.8 E 15 24 8 13 1015.8 1015.6 0.0
01/09:00am 19.7 17.4 11.7 60 4.4 ESE 15 24 8 13 1016.1 1015.9 0.0
01/08:30am 18.4 16.5 11.7 65 3.7 E 13 20 7 11 1016.3 1016.1 0.0
01/08:00am 17.6 16.0 11.6 68 3.3 E 11 17 6 9 1016.7 1016.5 0.0
01/07:30am 15.4 14.3 10.8 74 2.4 E 7 11 4 6 1017.0 1016.8 0.0
01/07:00am 13.8 12.2 10.2 79 1.9 ENE 9 13 5 7 1017.1 1016.9 0.0
01/06:30am 12.1 10.6 9.1 82 1.5 ENE 7 9 4 5 1017.0 1016.8 0.0
01/06:00am 11.9 9.9 8.7 81 1.6 ENE 9 11 5 6 1017.0 1016.8 0.0
01/05:30am 12.0 10.4 8.7 80 1.6 ENE 7 9 4 5 1016.6 1016.4 0.0
01/05:00am 11.9 10.2 8.2 78 1.8 ENE 7 11 4 6 1016.8 1016.6 0.0
01/04:30am 12.1 11.0 8.4 78 1.8 E 4 7 2 4 1016.7 1016.5 0.0
01/04:00am 12.0 10.6 8.7 80 1.6 E 6 9 3 5 1016.7 1016.5 0.0
01/03:30am 11.6 10.4 8.1 79 1.7 E 4 11 2 6 1016.7 1016.5 0.0
01/03:00am 11.6 11.1 7.9 78 1.8 CALM 0 0 0 0 1016.7 1016.5 0.0
01/02:30am 11.7 10.1 8.0 78 1.8 E 6 7 3 4 1016.7 1016.5 0.0
01/02:00am 12.3 10.8 8.4 77 1.9 E 6 9 3 5 1016.6 1016.4 0.0
01/01:30am 11.8 10.2 8.1 78 1.8 E 6 9 3 5 1016.6 1016.4 0.0
01/01:00am 11.6 9.9 7.7 77 1.9 ENE 6 9 3 5 1016.9 1016.7 0.0
01/12:30am 12.1 10.3 7.8 75 2.1 E 7 9 4 5 1017.0 1016.8 0.0
01/12:00am 12.5 10.7 8.0 74 2.2 E 7 13 4 7 1017.2 1017.0 0.0
 
Date/Time
WST
Temp
°C
App
Temp
°C
Dew
Point
Rel
Hum
%
Delta-T
°C
Wind Press
QNH
hPa
Press
MSL
hPa
Rain
since 9 am
mm
Dir
 
Spd
km/h
Gust
km/h
Spd
kts
Gust
kts
28/11:30pm 12.7 11.0 8.2 74 2.2 E 7 11 4 6 1017.4 1017.2 0.0
28/11:00pm 13.0 10.6 8.5 74 2.2 E 11 13 6 7 1017.5 1017.3 0.0
28/10:30pm 13.3 10.9 8.6 73 2.4 E 11 17 6 9 1017.6 1017.4 0.0
28/10:00pm 13.5 11.1 8.8 73 2.4 E 11 19 6 10 1018.0 1017.8 0.0
28/09:30pm 13.9 10.4 8.7 71 2.6 E 17 24 9 13 1018.2 1018.0 0.0
28/09:00pm 14.1 11.4 8.9 71 2.6 E 13 22 7 12 1018.4 1018.2 0.0
28/08:30pm 14.4 11.0 9.0 70 2.8 E 17 26 9 14 1018.2 1018.0 0.0
28/08:00pm 14.8 11.5 9.4 70 2.8 ESE 17 28 9 15 1018.0 1017.8 0.0
28/07:30pm 15.1 11.5 9.7 70 2.8 ESE 19 28 10 15 1018.0 1017.8 0.0
28/07:00pm 15.3 11.7 9.7 69 2.9 ESE 19 28 10 15 1017.8 1017.6 0.0
28/06:30pm 16.1 11.5 9.8 66 3.3 ESE 24 35 13 19 1017.7 1017.5 0.0
28/06:00pm 16.9 12.0 9.8 63 3.7 ESE 26 35 14 19 1017.7 1017.5 0.0
28/05:30pm 17.7 12.8 9.8 60 4.2 ESE 26 39 14 21 1017.7 1017.5 0.0
28/05:00pm 18.2 13.3 10.1 59 4.3 ESE 26 37 14 20 1017.7 1017.5 0.0
28/04:30pm 19.1 14.3 10.4 57 4.7 SE 26 41 14 22 1017.7 1017.5 0.0
28/04:00pm 19.1 13.9 10.1 56 4.8 SE 28 39 15 21 1017.8 1017.6 0.0
28/03:30pm 20.0 14.9 10.7 55 5.1 SE 28 37 15 20 1017.9 1017.7 0.0
28/03:00pm 20.0 15.2 10.4 54 5.2 SE 26 35 14 19 1018.1 1017.9 0.0
28/02:30pm 20.2 16.2 10.6 54 5.2 SE 22 37 12 20 1018.3 1018.1 0.0
28/02:00pm 19.6 15.5 10.0 54 5.1 SE 22 37 12 20 1018.6 1018.4 0.0
28/01:30pm 20.0 15.7 10.7 55 5.1 ESE 24 32 13 17 1019.0 1018.8 0.0
28/01:00pm 20.9 17.0 10.7 52 5.6 SE 22 33 12 18 1019.2 1019.0 0.0
28/12:30pm 20.2 15.9 10.9 55 5.1 SE 24 33 13 18 1019.5 1019.3 0.0
28/12:00pm 19.6 15.7 10.9 57 4.7 SE 22 32 12 17 1019.6 1019.4 0.0
28/11:30am 18.9 15.6 11.0 60 4.3 ESE 19 26 10 14 1019.9 1019.6 0.0
28/11:00am 19.3 16.3 10.8 58 4.6 E 17 24 9 13 1020.1 1019.8 0.0
28/10:30am 18.9 16.8 11.2 61 4.2 SSE 13 19 7 10 1020.2 1019.9 0.0
28/10:00am 18.8 15.2 10.6 59 4.4 ESE 20 28 11 15 1020.3 1020.0 0.0
28/09:30am 18.9 16.6 10.5 58 4.5 ESE 13 22 7 12 1020.3 1020.0 0.0
28/09:00am 18.6 15.2 10.4 59 4.4 SE 19 26 10 14 1020.1 1019.8 0.0
28/08:30am 19.1 16.0 9.0 52 5.3 ESE 15 22 8 12 1019.9 1019.6 0.0
28/08:00am 17.6 16.4 10.2 62 3.9 ESE 7 11 4 6 1019.6 1019.4 0.0
28/07:30am 17.5 15.2 10.4 63 3.8 SE 13 20 7 11 1019.3 1019.1 0.0
28/07:00am 16.8 14.4 10.0 64 3.6 SE 13 17 7 9 1018.8 1018.6 0.0
28/06:30am 16.3 14.2 9.7 65 3.5 SE 11 15 6 8 1018.4 1018.2 0.0
28/06:00am 16.3 14.0 10.4 68 3.1 SE 13 20 7 11 1018.0 1017.8 0.0
28/05:30am 16.3 13.9 10.2 67 3.2 SE 13 20 7 11 1017.5 1017.3 0.0
28/05:00am 16.3 13.8 9.7 65 3.5 SSE 13 19 7 10 1017.3 1017.1 0.0
28/04:30am 16.3 13.9 9.9 66 3.4 SSE 13 20 7 11 1017.2 1017.0 0.0
28/04:00am 16.4 14.3 9.8 65 3.5 SSE 11 17 6 9 1016.9 1016.7 0.0
28/03:30am 16.4 14.0 10.0 66 3.4 SSE 13 22 7 12 1016.6 1016.4 0.0
28/03:00am 16.5 14.2 10.4 67 3.2 SSE 13 26 7 14 1016.4 1016.2 0.0
28/02:30am 16.6 14.4 10.7 68 3.2 SSE 13 24 7 13 1016.2 1016.0 0.0
28/02:00am 16.8 14.7 11.3 70 3.0 SSE 13 22 7 12 1016.1 1015.9 0.0
28/01:30am 16.9 15.0 11.8 72 2.8 SSE 13 26 7 14 1016.2 1016.0 0.0
28/01:00am 16.9 14.3 12.0 73 2.7 SSE 17 30 9 16 1016.0 1015.8 0.0
28/12:30am 17.1 15.4 12.4 74 2.6 SSE 13 28 7 15 1015.9 1015.7 0.0
28/12:00am 17.3 15.3 12.6 74 2.6 SSE 15 28 8 15 1015.7 1015.5 0.0
 
Date/Time
WST
Temp
°C
App
Temp
°C
Dew
Point
Rel
Hum
%
Delta-T
°C
Wind Press
QNH
hPa
Press
MSL
hPa
Rain
since 9 am
mm
Dir
 
Spd
km/h
Gust
km/h
Spd
kts
Gust
kts
27/11:30pm 17.2 16.3 12.7 75 2.5 SSE 9 19 5 10 1015.7 1015.5 0.0
27/11:00pm 17.6 16.1 13.1 75 2.5 S 13 26 7 14 1015.4 1015.2 0.0
27/10:30pm 17.7 15.9 13.4 76 2.4 SSE 15 26 8 14 1015.4 1015.2 0.0
27/10:00pm 17.4 16.0 13.3 77 2.3 S 13 24 7 13 1015.4 1015.2 0.0
27/09:30pm 18.0 15.9 13.7 76 2.5 S 17 30 9 16 1015.2 1015.0 0.0
27/09:00pm 17.3 15.1 13.2 77 2.3 S 17 22 9 12 1015.2 1015.0 0.0
27/08:30pm 18.1 15.2 14.0 77 2.4 S 22 35 12 19 1014.8 1014.6 0.0
27/08:00pm 18.1 15.9 13.4 74 2.7 S 17 28 9 15 1014.4 1014.2 0.0
27/07:30pm 18.2 15.4 13.3 73 2.8 SSW 20 33 11 18 1013.9 1013.7 0.0
27/07:00pm 18.6 16.1 14.1 75 2.6 SSW 20 33 11 18 1013.3 1013.1 0.0
27/06:30pm 18.9 16.1 14.4 75 2.6 SSW 22 35 12 19 1012.8 1012.6 0.0
27/06:00pm 18.9 15.9 14.8 77 2.4 SSW 24 41 13 22 1012.5 1012.3 0.0
27/05:30pm 19.8 16.8 14.8 73 2.9 SSW 24 39 13 21 1011.9 1011.7 0.0
27/05:00pm 20.8 18.8 14.9 69 3.5 SW 19 30 10 16 1011.4 1011.2 0.0
27/04:30pm 21.5 19.9 14.9 66 3.9 SW 17 26 9 14 1010.8 1010.6 0.0
27/04:00pm 23.2 21.3 14.2 57 5.3 SW 17 26 9 14 1010.6 1010.3 0.0
27/03:30pm 22.5 20.2 13.0 55 5.5 WSW 17 30 9 16 1010.4 1010.1 0.0
27/03:00pm 23.6 21.6 14.0 55 5.7 SW 17 24 9 13 1010.3 1010.0 0.0
27/02:30pm 22.6 20.9 13.7 57 5.2 SW 15 24 8 13 1010.3 1010.0 0.0
27/02:00pm 24.1 22.0 14.8 56 5.6 WSW 19 32 10 17 1010.1 1009.8 0.0
27/01:30pm 22.3 20.0 14.2 60 4.8 SW 19 30 10 16 1010.1 1009.8 0.0
27/01:00pm 23.5 20.5 12.5 50 6.3 SW 20 30 11 16 1010.0 1009.7 0.0
27/12:30pm 23.3 21.3 14.0 56 5.5 SW 17 28 9 15 1009.9 1009.6 0.0
27/12:00pm 23.4 22.0 14.4 57 5.3 SW 15 26 8 14 1009.8 1009.5 0.0
27/11:30am 23.1 21.8 15.7 63 4.5 WSW 17 26 9 14 1010.0 1009.7 0.0
27/11:00am 21.8 20.7 15.4 67 3.8 SW 15 20 8 11 1009.9 1009.6 0.0
27/10:30am 21.4 21.1 15.5 69 3.5 S 11 24 6 13 1009.7 1009.4 0.0
27/10:00am 22.1 22.0 15.9 68 3.7 S 11 20 6 11 1009.6 1009.3 0.0
27/09:30am 20.9 20.7 15.7 72 3.1 S 11 20 6 11 1009.3 1009.0 0.0
27/09:00am 20.8 21.4 18.6 87 1.4 S 13 24 7 13 1009.2 1008.9 3.6
27/08:30am 19.6 20.6 19.4 99 0.1 SSW 13 26 7 14 1008.8 1008.5 3.6
27/08:00am 18.3 18.4 18.3 100 0.0 SSW 15 24 8 13 1008.6 1008.3 3.6
27/07:30am 17.4 17.9 17.4 100 0.0 SSW 11 17 6 9 1008.5 1008.2 3.6
27/07:00am 17.5 18.0 17.5 100 0.0 SW 11 19 6 10 1008.3 1008.0 3.6
27/06:30am 17.5 18.4 17.5 100 0.0 SSW 9 17 5 9 1007.8 1007.5 3.6
27/06:00am 17.5 17.3 17.5 100 0.0 SSW 15 20 8 11 1007.4 1007.1 3.4
27/05:30am 17.9 18.2 17.9 100 0.0 SSW 13 28 7 15 1007.1 1006.8 3.0
27/05:00am 18.3 19.5 18.3 100 0.0 SSW 9 17 5 9 1006.6 1006.3 2.8
27/04:30am 18.5 21.1 18.5 100 0.0 SSW 2 9 1 5 1006.2 1005.9 2.8
27/04:00am 18.3 20.1 18.3 100 0.0 SE 6 9 3 5 1006.0 1005.7 2.8
27/03:30am 18.1 19.2 18.1 100 0.0 SSE 9 20 5 11 1006.1 1005.8 2.8
27/03:00am 18.2 20.0 18.2 100 0.0 SSE 6 17 3 9 1006.3 1006.0 2.4
27/02:30am 18.3 19.9 18.3 100 0.0 SSW 7 17 4 9 1006.4 1006.1 2.4
27/02:00am 18.5 19.4 18.5 100 0.0 S 11 20 6 11 1006.5 1006.2 2.0
27/01:30am 19.1 22.4 19.1 100 0.0 CALM 0 6 0 3 1006.4 1006.1 1.8
27/01:00am 19.1 21.3 19.1 100 0.0 ESE 6 13 3 7 1006.4 1006.1 1.8
27/12:30am 19.1 21.3 19.1 100 0.0 ESE 6 9 3 5 1006.8 1006.5 1.8
27/12:00am 19.1 21.3 19.1 100 0.0 S 6 11 3 6 1006.7 1006.4 1.8
 
Date/Time
WST
Temp
°C
App
Temp
°C
Dew
Point
Rel
Hum
%
Delta-T
°C
Wind Press
QNH
hPa
Press
MSL
hPa
Rain
since 9 am
mm
Dir
 
Spd
km/h
Gust
km/h
Spd
kts
Gust
kts
26/11:30pm 19.0 20.9 19.0 100 0.0 SE 7 11 4 6 1006.7 1006.4 1.8

Other Formats:

Comma delimited format used in spreadsheet applications
http://www.bom.gov.au/fwo/IDW60801/IDW60801.95647.axf

JavaScript Object Notation format (JSON) in row-major order
http://www.bom.gov.au/fwo/IDW60801/IDW60801.95647.json